Time;durP1;ratioP1;P1;durP2;ratioP2;P2;SDS_P1;SDS_P2;PMS_P1;PMS_P2;Temp;Humidity;BMP_temperature;BMP_pressure;BME280_temperature;BME280_humidity;BME280_pressure;Samples;Min_cycle;Max_cycle;Signal;HPM_P1;HPM_P2
2022/04/18 00:02:02;;;;;;;10.80;4.57;;;7.20;99.90;;;;;;5058350;28;20469;-53
2022/04/18 00:04:28;;;;;;;9.15;4.32;;;7.00;99.90;;;;;;5058962;28;20456;-53
2022/04/18 00:06:53;;;;;;;9.90;4.23;;;6.90;99.90;;;;;;5041354;28;20476;-52
2022/04/18 00:09:19;;;;;;;10.00;4.75;;;6.80;99.90;;;;;;5057676;28;20935;-53
2022/04/18 00:11:45;;;;;;;9.50;4.30;;;6.60;99.90;;;;;;5042014;28;20434;-53
2022/04/18 00:14:11;;;;;;;9.98;4.20;;;6.60;99.90;;;;;;5060743;28;20475;-52
2022/04/18 00:16:36;;;;;;;9.30;4.70;;;6.60;99.90;;;;;;5058867;28;20385;-51
2022/04/18 00:19:02;;;;;;;9.10;4.40;;;6.70;99.90;;;;;;5057587;28;20425;-51
2022/04/18 00:21:28;;;;;;;9.55;4.50;;;6.70;99.90;;;;;;5057253;28;20489;-51
2022/04/18 00:23:53;;;;;;;10.83;4.67;;;6.70;99.90;;;;;;5041236;28;20877;-51
2022/04/18 00:26:19;;;;;;;8.40;4.07;;;6.70;99.90;;;;;;5058786;28;20855;-51
2022/04/18 00:28:45;;;;;;;9.17;4.13;;;6.80;99.90;;;;;;5057899;28;20389;-52
2022/04/18 00:31:10;;;;;;;9.77;4.70;;;6.80;99.90;;;;;;5058991;28;20472;-51
2022/04/18 00:33:36;;;;;;;12.80;4.40;;;6.70;99.90;;;;;;5058163;28;20390;-52
2022/04/18 00:36:02;;;;;;;9.53;4.10;;;6.60;99.90;;;;;;5040615;28;21613;-52
2022/04/18 00:38:28;;;;;;;9.43;4.38;;;6.50;99.90;;;;;;5056227;28;20475;-52
2022/04/18 00:40:54;;;;;;;9.35;4.28;;;6.40;99.90;;;;;;5059190;28;20383;-53
2022/04/18 00:43:49;;;;;;;9.20;4.30;;;6.30;99.90;;;;;;5058761;28;20392;-52
2022/04/18 00:46:19;;;;;;;10.90;4.40;;;6.30;99.90;;;;;;5057997;28;20377;-51
2022/04/18 00:48:46;;;;;;;10.48;4.60;;;6.30;99.90;;;;;;5060344;28;20874;-52
2022/04/18 00:51:14;;;;;;;8.20;4.00;;;6.20;99.90;;;;;;5057565;28;20424;-51
2022/04/18 00:53:42;;;;;;;10.65;4.25;;;6.20;99.90;;;;;;5058362;28;20433;-52
2022/04/18 00:56:11;;;;;;;8.73;4.07;;;6.20;99.90;;;;;;5059918;28;20407;-52
2022/04/18 00:58:37;;;;;;;12.20;4.25;;;6.20;99.90;;;;;;5058475;28;20378;-52
2022/04/18 01:01:03;;;;;;;9.73;4.30;;;6.10;99.90;;;;;;5057578;28;20854;-53
2022/04/18 01:03:30;;;;;;;8.77;4.30;;;6.10;99.90;;;;;;5057057;28;20427;-52
2022/04/18 01:06:00;;;;;;;9.40;4.28;;;6.10;99.90;;;;;;5061880;28;20390;-52
2022/04/18 01:08:31;;;;;;;9.93;3.90;;;6.20;99.90;;;;;;5060840;28;20398;-51
2022/04/18 01:10:57;;;;;;;8.40;3.83;;;6.20;99.90;;;;;;5062421;28;20399;-51
2022/04/18 01:13:23;;;;;;;8.30;4.50;;;6.10;99.90;;;;;;5062303;28;20713;-52
2022/04/18 01:15:55;;;;;;;9.48;4.80;;;6.20;99.90;;;;;;5061294;28;20431;-52
2022/04/18 01:18:21;;;;;;;10.83;4.80;;;6.20;99.90;;;;;;5061184;28;20486;-51
2022/04/18 01:20:48;;;;;;;10.23;4.03;;;6.20;99.90;;;;;;5062957;28;20490;-51
2022/04/18 01:23:17;;;;;;;8.80;4.50;;;6.20;99.90;;;;;;5061077;28;20389;-50
2022/04/18 01:31:12;;;;;;;8.88;4.10;;;6.10;99.90;;;;;;5061015;28;20442;-52
2022/04/18 01:33:38;;;;;;;9.23;4.40;;;6.00;99.90;;;;;;5061738;28;20786;-52
2022/04/18 01:36:04;;;;;;;8.27;4.10;;;6.00;99.90;;;;;;5062853;28;20451;-52
2022/04/18 01:38:30;;;;;;;11.25;4.57;;;6.10;99.90;;;;;;5059858;28;20894;-52
2022/04/18 01:40:55;;;;;;;9.15;4.40;;;6.20;99.90;;;;;;5062227;28;20390;-52
2022/04/18 01:43:21;;;;;;;9.13;4.20;;;6.30;99.90;;;;;;5061395;28;20847;-52
2022/04/18 01:45:47;;;;;;;7.93;4.00;;;6.30;99.90;;;;;;5060717;28;20384;-52
2022/04/18 01:48:13;;;;;;;9.93;5.00;;;6.40;99.90;;;;;;5044775;28;20575;-51
2022/04/18 01:50:39;;;;;;;8.52;4.40;;;6.40;99.90;;;;;;5061298;28;20840;-52
2022/04/18 01:53:05;;;;;;;10.50;4.63;;;6.40;99.90;;;;;;5060952;28;20407;-52
2022/04/18 01:55:31;;;;;;;8.95;4.50;;;6.40;99.90;;;;;;5061786;28;20420;-52
2022/04/18 01:57:57;;;;;;;9.52;4.55;;;6.30;99.90;;;;;;5061377;28;20385;-52
2022/04/18 02:00:22;;;;;;;9.50;4.97;;;6.30;99.90;;;;;;5060320;28;20375;-52
2022/04/18 02:02:48;;;;;;;10.23;4.90;;;6.10;99.90;;;;;;5064458;28;20384;-52
2022/04/18 02:05:14;;;;;;;9.77;4.90;;;6.10;99.90;;;;;;5060365;28;20405;-51
2022/04/18 02:07:39;;;;;;;8.70;4.30;;;6.10;99.90;;;;;;5060854;28;20388;-52
2022/04/18 02:10:06;;;;;;;8.80;4.40;;;6.10;99.90;;;;;;5062711;28;20715;-52
2022/04/18 02:12:33;;;;;;;9.85;4.90;;;6.20;99.90;;;;;;5059518;28;20413;-52
2022/04/18 02:14:59;;;;;;;8.77;4.40;;;6.10;99.90;;;;;;5061167;28;20478;-52
2022/04/18 02:17:24;;;;;;;11.02;4.60;;;6.10;99.90;;;;;;5042921;28;20746;-52
2022/04/18 02:19:50;;;;;;;8.77;4.40;;;6.00;99.90;;;;;;5059947;28;20397;-52
2022/04/18 02:22:16;;;;;;;9.52;4.28;;;5.90;99.90;;;;;;5066070;28;20481;-51
2022/04/18 02:24:41;;;;;;;9.70;4.50;;;5.80;99.90;;;;;;5081203;28;20395;-52
2022/04/18 02:27:08;;;;;;;9.60;5.00;;;5.80;99.90;;;;;;5070427;28;20394;-52
2022/04/18 02:29:34;;;;;;;8.95;5.10;;;5.70;99.90;;;;;;5081443;28;20552;-52
2022/04/18 02:34:45;;;;;;;8.52;4.40;;;5.40;99.90;;;;;;5081551;28;20818;-53
2022/04/18 02:37:11;;;;;;;9.00;4.60;;;5.40;99.90;;;;;;5079747;28;20486;-53
2022/04/18 02:39:37;;;;;;;9.57;4.63;;;5.30;99.90;;;;;;5080672;28;21119;-52
2022/04/18 02:42:04;;;;;;;8.53;4.70;;;5.30;99.90;;;;;;5080970;28;20399;-53
2022/04/18 02:44:29;;;;;;;8.93;4.40;;;5.20;99.90;;;;;;5078969;28;20382;-53
2022/04/18 02:46:55;;;;;;;8.70;4.60;;;5.20;99.90;;;;;;5082157;28;20735;-52
2022/04/18 02:49:21;;;;;;;8.60;4.40;;;5.20;99.90;;;;;;5078566;28;20371;-52
2022/04/18 02:51:47;;;;;;;8.90;4.40;;;5.30;99.90;;;;;;5082506;28;20417;-53
2022/04/18 02:54:12;;;;;;;8.67;4.50;;;5.40;99.90;;;;;;5081568;28;20375;-52
2022/04/18 02:56:38;;;;;;;15.65;5.38;;;5.30;99.90;;;;;;5078260;28;20434;-53
2022/04/18 02:59:04;;;;;;;11.10;4.90;;;5.30;99.90;;;;;;5070817;28;20383;-53
2022/04/18 03:01:29;;;;;;;8.87;4.70;;;5.30;99.90;;;;;;5079275;28;20382;-53
2022/04/18 03:03:55;;;;;;;9.27;4.95;;;5.40;99.90;;;;;;5081675;28;20367;-53
2022/04/18 03:06:21;;;;;;;9.20;5.17;;;5.40;99.90;;;;;;5078835;28;20723;-52
2022/04/18 03:08:46;;;;;;;9.90;4.72;;;5.40;99.90;;;;;;5080391;28;20389;-53
2022/04/18 03:11:12;;;;;;;7.97;4.50;;;5.40;99.90;;;;;;5081616;28;20420;-53
2022/04/18 03:13:44;;;;;;;9.80;4.60;;;5.40;99.90;;;;;;5078582;28;20413;-52
2022/04/18 03:16:11;;;;;;;9.90;4.30;;;5.40;99.90;;;;;;5079600;28;20378;-52
2022/04/18 03:18:37;;;;;;;10.27;4.63;;;5.40;99.90;;;;;;5080764;28;20374;-53
2022/04/18 03:21:03;;;;;;;11.00;5.17;;;5.40;99.90;;;;;;5073618;28;20516;-52
2022/04/18 03:23:29;;;;;;;10.15;5.00;;;5.40;99.90;;;;;;5058804;28;20384;-52
2022/04/18 03:25:56;;;;;;;9.30;4.90;;;5.50;99.90;;;;;;5060843;28;20378;-52
2022/04/18 03:28:22;;;;;;;9.15;4.90;;;5.40;99.90;;;;;;5057661;28;20742;-52
2022/04/18 03:30:48;;;;;;;8.85;4.30;;;5.50;99.90;;;;;;5059207;28;21015;-52
2022/04/18 03:33:14;;;;;;;8.93;4.50;;;5.40;99.90;;;;;;5050860;28;20409;-51
2022/04/18 03:39:50;;;;;;;9.10;4.65;;;4.10;99.90;;;;;;5049374;28;20384;-53
2022/04/18 03:41:14;;;;;;;9.98;4.68;;;5.20;99.90;;;;;;5049988;28;20400;-53
2022/04/18 03:43:40;;;;;;;12.20;5.30;;;5.20;99.90;;;;;;5049290;28;20385;-53
2022/04/18 03:46:05;;;;;;;9.37;5.73;;;5.10;99.90;;;;;;5049914;28;20504;-53
2022/04/18 03:48:31;;;;;;;12.80;6.10;;;5.20;99.90;;;;;;5031570;28;20460;-53
2022/04/18 03:50:57;;;;;;;11.93;6.22;;;5.20;99.90;;;;;;5049673;28;20426;-53
2022/04/18 03:53:23;;;;;;;11.00;5.67;;;5.00;99.90;;;;;;5049253;28;20458;-52
2022/04/18 03:55:49;;;;;;;10.63;5.50;;;5.00;99.90;;;;;;5049824;28;20377;-52
2022/04/18 03:58:14;;;;;;;9.40;4.85;;;4.90;99.90;;;;;;5049674;28;20385;-52
2022/04/18 04:00:42;;;;;;;10.55;5.50;;;4.80;99.90;;;;;;5048922;28;20381;-52
2022/04/18 04:03:08;;;;;;;10.40;5.28;;;4.80;99.90;;;;;;5049824;28;20445;-52
2022/04/18 04:05:34;;;;;;;10.30;5.50;;;4.60;1.00;;;;;;5049021;28;20435;-52
2022/04/18 04:08:00;;;;;;;10.53;5.60;;;4.30;99.90;;;;;;5031989;28;20390;-55
2022/04/18 04:10:26;;;;;;;12.37;5.50;;;3.90;1.00;;;;;;5051587;28;20449;-55
2022/04/18 04:12:51;;;;;;;12.13;6.70;;;3.70;99.90;;;;;;5058202;28;20421;-54
2022/04/18 04:15:18;;;;;;;12.80;6.60;;;3.70;1.00;;;;;;5049418;28;20385;-54
2022/04/18 04:17:44;;;;;;;19.20;9.80;;;2.70;1.00;;;;;;5049529;28;20859;-55
2022/04/18 04:20:10;;;;;;;19.05;9.40;;;3.80;1.00;;;;;;5049507;28;20389;-55
2022/04/18 04:22:36;;;;;;;19.48;10.80;;;3.90;99.90;;;;;;5045875;28;20519;-55
2022/04/18 04:25:02;;;;;;;18.80;9.85;;;4.10;1.00;;;;;;5049349;28;20799;-55
2022/04/18 04:27:30;;;;;;;20.08;9.70;;;4.20;1.00;;;;;;5047568;28;20388;-53
2022/04/18 04:29:56;;;;;;;14.13;8.50;;;4.30;99.90;;;;;;5049674;28;20390;-53
2022/04/18 04:32:23;;;;;;;14.73;7.72;;;4.20;99.90;;;;;;5048415;28;20405;-53
2022/04/18 04:34:50;;;;;;;15.63;7.68;;;4.20;99.90;;;;;;5049560;28;20388;-53
2022/04/18 04:37:16;;;;;;;12.25;6.60;;;4.20;99.90;;;;;;5049631;28;20384;-54
2022/04/18 04:39:42;;;;;;;11.70;5.97;;;4.30;99.90;;;;;;5049950;28;20388;-53
2022/04/18 04:42:08;;;;;;;10.30;6.00;;;4.20;99.90;;;;;;5053259;28;20815;-53
2022/04/18 04:44:33;;;;;;;9.75;5.63;;;4.20;99.90;;;;;;5052812;28;20383;-54
2022/04/18 04:46:59;;;;;;;9.20;5.10;;;4.20;99.90;;;;;;5053266;28;20738;-53
2022/04/18 04:49:25;;;;;;;9.43;5.07;;;4.20;1.00;;;;;;5052480;28;20405;-52
2022/04/18 04:51:51;;;;;;;12.60;5.67;;;4.30;1.00;;;;;;5053199;28;20401;-53
2022/04/18 04:54:17;;;;;;;9.98;5.50;;;4.40;1.00;;;;;;5053252;28;20431;-52
2022/04/18 04:56:42;;;;;;;9.70;5.47;;;4.40;1.00;;;;;;5052822;28;20386;-53
2022/04/18 04:59:08;;;;;;;9.30;5.00;;;4.70;1.00;;;;;;5053422;28;20983;-53
2022/04/18 05:01:34;;;;;;;8.88;4.90;;;5.00;72.20;;;;;;5053173;28;20397;-53
2022/04/18 05:04:00;;;;;;;9.60;4.83;;;5.40;1.00;;;;;;5053251;28;20451;-53
2022/04/18 05:06:25;;;;;;;13.02;5.13;;;5.60;1.00;;;;;;5052447;28;20460;-53
2022/04/18 05:08:51;;;;;;;10.35;5.10;;;5.70;1.00;;;;;;5053361;28;20929;-53
2022/04/18 05:11:17;;;;;;;12.10;5.53;;;5.80;1.00;;;;;;5054812;28;20854;-52
2022/04/18 05:13:42;;;;;;;9.38;5.60;;;5.70;1.00;;;;;;5067887;28;20415;-53
2022/04/18 05:16:08;;;;;;;10.77;5.07;;;5.70;1.00;;;;;;5053347;28;20378;-53
2022/04/18 05:18:34;;;;;;;12.13;5.30;;;5.70;1.00;;;;;;5052225;28;20401;-53
2022/04/18 05:21:00;;;;;;;10.02;5.40;;;5.80;1.00;;;;;;5058214;28;20824;-53
2022/04/18 05:23:25;;;;;;;12.17;5.77;;;5.60;1.00;;;;;;5054165;28;20457;-53
2022/04/18 05:25:51;;;;;;;10.75;5.80;;;5.90;1.00;;;;;;5072535;28;20386;-53
2022/04/18 05:28:17;;;;;;;9.10;4.80;;;6.50;1.00;;;;;;5072402;28;20438;-53
2022/04/18 05:30:43;;;;;;;10.00;5.60;;;7.10;1.00;;;;;;5071840;28;20462;-53
2022/04/18 05:33:09;;;;;;;10.57;5.50;;;7.50;1.00;;;;;;5072320;28;20821;-53
2022/04/18 05:35:35;;;;;;;10.20;4.80;;;7.90;99.90;;;;;;5071789;28;20388;-53
2022/04/18 05:38:00;;;;;;;8.50;4.83;;;8.20;99.90;;;;;;5072612;28;20825;-53
2022/04/18 05:40:27;;;;;;;8.90;4.70;;;9.00;99.90;;;;;;5071695;28;20376;-53
2022/04/18 05:42:54;;;;;;;8.73;4.70;;;9.80;99.90;;;;;;5072546;28;20390;-54
2022/04/18 05:45:19;;;;;;;11.07;5.15;;;10.10;99.90;;;;;;5071662;28;20415;-52
2022/04/18 05:47:45;;;;;;;9.00;4.80;;;10.20;99.90;;;;;;5037801;28;20379;-54
2022/04/18 05:50:12;;;;;;;9.10;4.53;;;10.30;99.90;;;;;;5071958;28;20743;-53
2022/04/18 05:52:38;;;;;;;8.77;4.50;;;10.80;99.90;;;;;;5070710;28;20498;-54
2022/04/18 05:55:04;;;;;;;8.50;4.67;;;11.90;99.90;;;;;;5054317;28;20471;-54
2022/04/18 05:57:30;;;;;;;8.80;5.35;;;12.30;99.90;;;;;;5071120;28;20416;-54
2022/04/18 05:59:56;;;;;;;14.30;5.90;;;13.40;99.90;;;;;;5072260;28;20806;-54
2022/04/18 06:02:21;;;;;;;11.18;7.00;;;14.20;1.00;;;;;;5071542;28;20508;-53
2022/04/18 06:04:47;;;;;;;10.80;6.72;;;14.20;67.40;;;;;;5080049;28;20642;-54
2022/04/18 06:07:13;;;;;;;10.10;6.70;;;14.20;65.90;;;;;;5081033;28;20427;-54
2022/04/18 06:09:38;;;;;;;10.60;6.25;;;14.10;63.10;;;;;;5084773;28;20383;-54
2022/04/18 06:12:05;;;;;;;8.83;5.90;;;14.10;64.40;;;;;;5053977;28;20403;-54
2022/04/18 06:14:30;;;;;;;9.10;5.20;;;14.70;63.60;;;;;;5082827;28;20436;-54
2022/04/18 06:16:56;;;;;;;9.97;5.63;;;14.70;61.50;;;;;;5091895;28;20378;-54
2022/04/18 06:19:22;;;;;;;9.02;5.50;;;15.00;61.60;;;;;;5090853;28;20382;-53
2022/04/18 06:21:50;;;;;;;8.40;6.07;;;15.30;58.10;;;;;;5090215;28;20406;-54
2022/04/18 06:24:18;;;;;;;8.30;5.65;;;15.60;56.70;;;;;;5071779;28;20841;-54
2022/04/18 06:26:44;;;;;;;8.88;5.50;;;15.70;50.80;;;;;;5071184;28;20388;-54
2022/04/18 06:29:09;;;;;;;8.68;6.57;;;16.60;53.50;;;;;;5071592;28;20387;-52
2022/04/18 06:31:35;;;;;;;9.30;6.90;;;18.00;52.20;;;;;;5070673;28;20797;-54
2022/04/18 06:34:01;;;;;;;9.30;7.00;;;19.30;50.00;;;;;;5071175;28;20437;-54
2022/04/18 06:36:27;;;;;;;9.00;7.30;;;19.80;46.10;;;;;;5052278;28;20380;-54
2022/04/18 06:38:52;;;;;;;9.98;7.70;;;19.90;99.90;;;;;;5077938;28;20393;-57
2022/04/18 06:41:18;;;;;;;9.20;7.38;;;19.60;99.90;;;;;;5083279;28;20837;-52
2022/04/18 06:43:44;;;;;;;9.77;7.22;;;19.00;99.90;;;;;;5080932;28;20910;-54
2022/04/18 06:46:09;;;;;;;9.60;7.70;;;19.70;99.90;;;;;;5081416;28;20386;-54
2022/04/18 06:48:35;;;;;;;9.10;7.20;;;20.30;99.90;;;;;;5077685;28;20406;-54
2022/04/18 06:51:01;;;;;;;8.97;7.83;;;21.00;99.90;;;;;;5085951;28;20416;-55
2022/04/18 06:53:26;;;;;;;10.97;8.03;;;21.60;99.90;;;;;;5086773;28;20451;-54
2022/04/18 06:58:36;;;;;;;9.10;8.20;;;22.50;99.90;;;;;;5077803;28;20489;-55
2022/04/18 07:01:02;;;;;;;10.77;9.60;;;22.70;99.90;;;;;;5093429;28;20402;-54
2022/04/18 07:03:28;;;;;;;9.10;4.10;;;22.80;99.90;;;;;;5085273;28;20891;-55
2022/04/18 07:05:54;;;;;;;8.50;7.50;;;22.90;99.90;;;;;;5077748;28;20399;-55
2022/04/18 07:08:19;;;;;;;8.60;7.50;;;23.00;99.90;;;;;;5074789;28;20406;-52
2022/04/18 07:10:45;;;;;;;9.45;8.00;;;23.70;99.90;;;;;;5075001;28;20399;-53
2022/04/18 07:13:11;;;;;;;7.90;5.95;;;23.30;99.90;;;;;;5077854;28;20423;-53
2022/04/18 07:15:36;;;;;;;8.48;4.15;;;22.60;99.90;;;;;;5080674;28;20905;-54
2022/04/18 07:18:03;;;;;;;7.88;4.53;;;21.30;99.90;;;;;;5083500;28;20401;-55
2022/04/18 07:20:29;;;;;;;9.30;5.00;;;20.30;99.90;;;;;;5081811;28;20416;-56
2022/04/18 07:22:55;;;;;;;9.70;4.75;;;20.70;99.90;;;;;;5083211;28;20481;-55
2022/04/18 07:25:21;;;;;;;8.45;4.82;;;21.70;99.90;;;;;;5069549;28;20500;-54
2022/04/18 07:27:46;;;;;;;11.07;6.30;;;22.80;99.90;;;;;;5083603;28;20478;-55
2022/04/18 07:30:12;;;;;;;8.20;5.00;;;23.10;99.90;;;;;;5082742;28;20402;-55
2022/04/18 07:32:41;;;;;;;10.40;8.07;;;23.20;99.90;;;;;;5064908;28;20406;-55
2022/04/18 07:35:08;;;;;;;10.02;8.10;;;23.00;99.90;;;;;;5086170;28;20406;-54
2022/04/18 07:37:35;;;;;;;9.75;8.10;;;22.70;99.90;;;;;;5082642;28;20443;-55
2022/04/18 07:40:00;;;;;;;11.32;8.00;;;22.90;99.90;;;;;;5061770;28;20386;-55
2022/04/18 07:42:26;;;;;;;10.10;7.90;;;22.60;99.90;;;;;;5086198;28;20750;-55
2022/04/18 07:44:52;;;;;;;11.33;8.10;;;22.90;99.90;;;;;;5079860;28;20394;-55
2022/04/18 07:47:17;;;;;;;10.60;7.37;;;22.60;99.90;;;;;;5077182;28;20535;-55
2022/04/18 07:49:43;;;;;;;10.23;7.53;;;22.60;99.90;;;;;;5087241;28;20429;-55
2022/04/18 07:52:11;;;;;;;9.32;7.70;;;22.70;99.90;;;;;;5079973;28;20871;-55
2022/04/18 07:54:37;;;;;;;9.70;7.95;;;22.80;99.90;;;;;;5081845;28;20398;-55
2022/04/18 07:57:04;;;;;;;10.50;8.07;;;22.90;99.90;;;;;;5079291;28;20397;-55
2022/04/18 07:59:30;;;;;;;10.00;7.70;;;22.50;99.90;;;;;;5079738;28;20740;-55
2022/04/18 08:01:56;;;;;;;10.43;7.88;;;;;;;;;;5072407;28;20972;-53
2022/04/18 08:04:23;;;;;;;10.63;7.50;;;;;;;;;;5063780;28;20394;-54
2022/04/18 08:06:49;;;;;;;10.43;8.40;;;25.00;99.90;;;;;;5073636;28;20384;-54
2022/04/18 08:09:15;;;;;;;9.23;8.00;;;24.90;1.00;;;;;;5077551;28;20406;-54
2022/04/18 08:11:40;;;;;;;9.40;8.33;;;24.50;1.00;;;;;;5066330;28;21293;-54
2022/04/18 08:14:06;;;;;;;10.90;8.10;;;24.50;1.00;;;;;;5062039;28;20469;-54
2022/04/18 08:16:32;;;;;;;9.23;7.43;;;23.90;1.00;;;;;;5056473;28;20388;-54
2022/04/18 08:18:58;;;;;;;9.57;7.97;;;24.00;1.00;;;;;;5076639;28;20897;-54
2022/04/18 08:21:23;;;;;;;9.80;7.65;;;23.30;1.00;;;;;;5070013;28;20421;-54
2022/04/18 08:23:53;;;;;;;8.98;7.40;;;23.60;1.00;;;;;;5077407;28;20981;-54
2022/04/18 08:26:22;;;;;;;9.43;7.60;;;24.40;1.00;;;;;;5073437;28;20508;-54
2022/04/18 08:28:47;;;;;;;9.32;7.20;;;24.70;1.00;;;;;;5072135;28;20380;-54
2022/04/18 08:31:14;;;;;;;9.73;8.40;;;25.00;1.00;;;;;;5071376;28;20457;-54
2022/04/18 08:33:40;;;;;;;10.30;7.78;;;;;;;;;;5084483;28;20488;-55
2022/04/18 08:36:06;;;;;;;11.97;8.30;;;;;;;;;;5085019;28;20483;-56
2022/04/18 08:38:32;;;;;;;10.00;8.30;;;;;;;;;;5061873;28;20806;-54
2022/04/18 08:40:59;;;;;;;11.00;7.73;;;;;;;;;;5071665;28;20399;-56
2022/04/18 08:43:25;;;;;;;9.43;7.30;;;;;;;;;;5072559;28;20388;-54
2022/04/18 08:45:51;;;;;;;9.20;7.80;;;;;;;;;;5074903;28;20757;-55
2022/04/18 08:53:48;;;;;;;9.13;6.80;;;;;;;;;;5075319;28;20421;-55
2022/04/18 08:56:14;;;;;;;10.52;7.78;;;;;;;;;;5073842;28;20447;-55
2022/04/18 08:58:41;;;;;;;9.40;7.70;;;;;;;;;;5056062;28;20414;-55
2022/04/18 09:01:07;;;;;;;10.18;7.65;;;25.20;99.90;;;;;;5078047;28;20394;-55
2022/04/18 09:03:34;;;;;;;8.60;7.13;;;26.10;99.90;;;;;;5053907;28;20403;-56
2022/04/18 09:06:11;;;;;;;9.70;8.63;;;25.90;99.90;;;;;;5081078;28;20400;-55
2022/04/18 09:08:51;;;;;;;10.82;9.10;;;26.90;99.90;;;;;;5086757;28;20431;-55
2022/04/18 09:11:30;;;;;;;9.20;6.60;;;26.60;99.90;;;;;;5085008;28;20413;-55
2022/04/18 09:14:07;;;;;;;8.07;5.57;;;27.80;99.90;;;;;;5081868;28;20394;-56
2022/04/18 09:16:34;;;;;;;9.68;7.20;;;28.10;99.90;;;;;;5084498;28;20405;-56
2022/04/18 09:19:15;;;;;;;9.93;8.80;;;28.50;99.90;;;;;;5078207;28;21049;-57
2022/04/18 09:21:56;;;;;;;10.13;6.50;;;29.10;99.90;;;;;;5058243;28;20490;-56
2022/04/18 09:24:33;;;;;;;9.18;5.72;;;27.90;99.90;;;;;;5051567;28;20431;-55
2022/04/18 09:27:06;;;;;;;7.90;4.30;;;27.70;99.90;;;;;;5061601;28;20579;-55
2022/04/18 09:29:33;;;;;;;9.32;7.40;;;28.10;99.90;;;;;;5068385;28;20386;-54
2022/04/18 09:32:01;;;;;;;9.77;7.90;;;27.30;99.90;;;;;;5064097;28;20408;-56
2022/04/18 09:34:27;;;;;;;10.03;7.87;;;26.90;99.90;;;;;;5065942;28;20427;-54
2022/04/18 09:37:17;;;;;;;8.65;6.65;;;26.60;99.90;;;;;;5069909;28;20391;-56
2022/04/18 09:40:00;;;;;;;9.30;7.30;;;26.40;99.90;;;;;;5063750;28;20462;-54
2022/04/18 09:42:28;;;;;;;11.40;8.63;;;26.50;99.90;;;;;;5057655;28;20403;-55
2022/04/18 09:44:55;;;;;;;8.93;7.28;;;27.30;99.90;;;;;;5061845;28;20984;-56
2022/04/18 09:47:22;;;;;;;8.40;7.50;;;26.30;99.90;;;;;;5059081;28;20397;-54
2022/04/18 09:49:49;;;;;;;9.90;7.50;;;25.00;99.90;;;;;;5056749;28;20483;-55
2022/04/18 09:52:17;;;;;;;10.15;7.60;;;24.60;99.90;;;;;;5055920;28;20428;-55
2022/04/18 09:54:45;;;;;;;9.63;7.53;;;24.90;99.90;;;;;;5058341;28;20677;-55
2022/04/18 09:57:11;;;;;;;9.15;7.60;;;24.60;99.90;;;;;;5060058;28;20944;-55
2022/04/18 09:59:40;;;;;;;8.87;7.33;;;24.70;99.90;;;;;;5059367;28;20401;-54
2022/04/18 10:02:12;;;;;;;9.27;7.50;;;25.30;99.90;;;;;;5058054;28;20403;-55
2022/04/18 10:04:38;;;;;;;8.77;7.57;;;25.20;99.90;;;;;;5056727;28;20404;-55
2022/04/18 10:07:06;;;;;;;8.53;6.67;;;25.30;99.90;;;;;;5058973;28;20407;-56
2022/04/18 10:09:32;;;;;;;8.50;6.95;;;26.40;99.90;;;;;;5054563;28;20488;-55
2022/04/18 10:11:59;;;;;;;9.77;7.22;;;26.30;99.90;;;;;;5062224;28;20496;-55
2022/04/18 10:14:25;;;;;;;9.15;6.65;;;24.60;99.90;;;;;;5055938;28;20416;-55
2022/04/18 10:16:52;;;;;;;9.50;6.73;;;24.40;99.90;;;;;;5067430;28;20390;-55
2022/04/18 10:19:46;;;;;;;10.13;7.57;;;24.40;99.90;;;;;;5057243;28;20449;-56
2022/04/18 10:23:06;;;;;;;8.80;7.28;;;23.90;99.90;;;;;;5036966;28;20565;-55
2022/04/18 10:25:53;;;;;;;10.30;7.80;;;24.70;99.90;;;;;;4980963;28;20412;-55
2022/04/18 10:28:21;;;;;;;8.80;7.55;;;23.20;99.90;;;;;;5049363;28;20412;-55
2022/04/18 10:30:55;;;;;;;10.18;7.10;;;23.30;99.90;;;;;;5068679;28;20961;-55
2022/04/18 10:33:25;;;;;;;9.05;7.40;;;23.30;99.90;;;;;;5060962;28;20397;-53
2022/04/18 10:35:55;;;;;;;9.50;7.22;;;24.10;99.90;;;;;;5070442;28;20438;-55
2022/04/18 10:38:25;;;;;;;9.07;6.80;;;24.00;99.90;;;;;;5056183;28;20408;-55
2022/04/18 10:41:14;;;;;;;8.80;7.25;;;23.70;99.90;;;;;;5062307;28;20392;-55
2022/04/18 10:44:13;;;;;;;9.25;6.95;;;21.70;99.90;;;;;;5054286;28;20418;-55
2022/04/18 10:47:00;;;;;;;9.43;7.10;;;21.90;99.90;;;;;;5029153;28;20416;-55
2022/04/18 10:49:31;;;;;;;8.87;7.20;;;21.10;99.90;;;;;;5063096;28;20420;-54
2022/04/18 10:51:57;;;;;;;8.52;6.70;;;21.10;99.90;;;;;;5061815;28;20914;-55
2022/04/18 10:54:23;;;;;;;9.00;7.13;;;20.50;99.90;;;;;;5059659;28;20376;-53
2022/04/18 10:56:56;;;;;;;9.65;7.90;;;19.90;99.90;;;;;;5056086;28;21932;-55
2022/04/18 10:59:29;;;;;;;8.23;5.80;;;19.90;99.90;;;;;;5060663;28;20470;-53
2022/04/18 11:01:58;;;;;;;8.03;3.60;;;19.70;99.90;;;;;;5068085;28;20971;-53
2022/04/18 11:04:41;;;;;;;7.32;3.65;;;19.50;99.90;;;;;;5058089;28;20524;-53
2022/04/18 11:07:09;;;;;;;8.32;4.25;;;19.60;99.90;;;;;;5058830;28;20542;-53
2022/04/18 11:09:44;;;;;;;7.07;3.50;;;19.50;99.90;;;;;;5064339;28;20395;-53
2022/04/18 11:12:17;;;;;;;9.63;4.03;;;19.80;99.90;;;;;;5056718;28;20412;-53
2022/04/18 11:14:48;;;;;;;8.85;4.32;;;20.10;99.90;;;;;;5058956;28;20877;-53
2022/04/18 11:17:31;;;;;;;9.20;3.80;;;20.40;99.90;;;;;;5057532;28;20397;-54
2022/04/18 11:19:57;;;;;;;8.38;4.10;;;20.70;99.90;;;;;;5057335;28;20500;-54
2022/04/18 11:22:24;;;;;;;7.60;3.40;;;20.60;99.90;;;;;;5037770;28;20424;-54
2022/04/18 11:24:51;;;;;;;7.90;3.90;;;19.70;99.90;;;;;;5067496;28;20384;-53
2022/04/18 11:27:21;;;;;;;8.40;4.00;;;19.60;99.90;;;;;;5073558;28;20423;-53
2022/04/18 11:29:53;;;;;;;9.20;3.90;;;19.70;99.90;;;;;;5070008;28;20398;-53
2022/04/18 11:32:21;;;;;;;7.63;3.80;;;19.90;99.90;;;;;;5068354;28;20427;-54
2022/04/18 11:34:51;;;;;;;7.15;3.30;;;20.10;99.90;;;;;;5072806;28;20376;-54
2022/04/18 11:37:31;;;;;;;8.45;4.32;;;20.10;99.90;;;;;;5068719;28;20407;-54
2022/04/18 11:40:05;;;;;;;8.25;3.60;;;19.90;99.90;;;;;;5058654;28;20397;-54
2022/04/18 11:42:32;;;;;;;8.55;3.90;;;19.80;99.90;;;;;;5050910;28;20759;-53
2022/04/18 11:45:01;;;;;;;7.95;3.85;;;19.90;99.90;;;;;;5058899;28;20443;-54
2022/04/18 11:47:44;;;;;;;7.57;3.17;;;20.30;99.90;;;;;;5056064;28;20424;-54
2022/04/18 11:50:10;;;;;;;13.05;6.10;;;19.80;99.90;;;;;;5051483;28;20463;-54
2022/04/18 11:52:39;;;;;;;7.95;3.30;;;20.50;99.90;;;;;;5058446;28;20487;-54
2022/04/18 11:55:14;;;;;;;7.30;3.67;;;20.00;99.90;;;;;;5059034;28;20465;-54
2022/04/18 11:57:42;;;;;;;9.57;3.90;;;20.00;99.90;;;;;;5060976;28;20859;-54
2022/04/18 12:00:10;;;;;;;7.90;3.40;;;20.00;99.90;;;;;;5068902;28;20378;-54
2022/04/18 12:08:10;;;;;;;6.90;3.50;;;19.90;99.90;;;;;;5059254;28;20406;-55
2022/04/18 12:10:40;;;;;;;9.63;3.78;;;19.60;99.90;;;;;;5057351;28;20398;-54
2022/04/18 12:13:10;;;;;;;7.60;3.25;;;19.50;99.90;;;;;;5055979;28;20937;-54
2022/04/18 12:15:36;;;;;;;9.00;4.25;;;19.70;99.90;;;;;;5059432;28;20493;-53
2022/04/18 12:18:19;;;;;;;12.00;8.90;;;19.80;99.90;;;;;;5062730;28;20422;-53
2022/04/18 12:20:50;;;;;;;9.30;3.80;;;19.80;99.90;;;;;;5060411;28;20761;-53
2022/04/18 12:23:19;;;;;;;6.97;3.15;;;19.80;99.90;;;;;;5083709;28;20401;-53
2022/04/18 12:25:55;;;;;;;9.48;4.10;;;20.00;99.90;;;;;;5085692;28;20971;-54
2022/04/18 12:28:23;;;;;;;7.93;3.55;;;20.10;99.90;;;;;;5083381;28;20464;-53
2022/04/18 12:30:50;;;;;;;6.72;3.40;;;20.00;99.90;;;;;;5082333;28;20917;-53
2022/04/18 12:33:27;;;;;;;8.05;3.30;;;20.00;99.90;;;;;;5082269;28;20474;-53
2022/04/18 12:35:55;;;;;;;8.13;3.35;;;20.40;99.90;;;;;;5077357;28;20524;-53
2022/04/18 12:38:32;;;;;;;8.13;3.42;;;20.30;99.90;;;;;;5085528;28;20412;-54
2022/04/18 12:40:59;;;;;;;7.10;3.30;;;20.10;99.90;;;;;;5078844;28;20385;-53
2022/04/18 12:43:28;;;;;;;7.28;3.38;;;19.60;99.90;;;;;;5088611;28;20486;-55
2022/04/18 12:45:57;;;;;;;6.83;3.17;;;19.40;99.90;;;;;;5082851;28;20432;-54
2022/04/18 12:48:26;;;;;;;6.97;3.17;;;19.80;99.90;;;;;;5078842;28;20388;-55
2022/04/18 12:50:53;;;;;;;8.13;3.60;;;20.20;99.90;;;;;;5082924;28;21040;-55
2022/04/18 12:53:20;;;;;;;8.80;3.60;;;20.40;99.90;;;;;;5083962;28;20386;-54
2022/04/18 12:55:46;;;;;;;7.95;3.22;;;20.30;99.90;;;;;;5081278;28;20382;-55
2022/04/18 12:58:18;;;;;;;10.73;4.10;;;19.90;99.90;;;;;;5080618;28;20398;-55
2022/04/18 13:00:50;;;;;;;9.40;4.15;;;19.50;99.90;;;;;;5081198;28;20952;-54
2022/04/18 13:03:17;;;;;;;8.07;3.08;;;20.00;99.90;;;;;;5081388;28;20473;-53
2022/04/18 13:05:48;;;;;;;6.97;3.00;;;20.10;99.90;;;;;;5083143;28;20419;-55
2022/04/18 13:08:16;;;;;;;8.40;2.88;;;20.20;99.90;;;;;;5064422;28;20399;-54
2022/04/18 13:10:43;;;;;;;6.47;2.87;;;20.00;99.90;;;;;;5078624;28;20455;-54
2022/04/18 13:13:19;;;;;;;6.50;2.80;;;20.00;99.90;;;;;;5089781;28;20451;-54
2022/04/18 13:15:46;;;;;;;6.68;2.90;;;20.20;99.90;;;;;;5078383;28;20407;-54
2022/04/18 13:18:21;;;;;;;7.15;2.50;;;20.20;99.90;;;;;;5080113;28;20400;-54
2022/04/18 13:20:47;;;;;;;6.70;2.83;;;20.40;99.90;;;;;;5080376;28;20896;-55
2022/04/18 13:23:14;;;;;;;6.78;2.78;;;20.80;99.90;;;;;;5069074;28;20399;-57